A- A+ FrançaisEnglishEspañol中国

Services sur Internet Soldes sur Internet Des idées de cadeaux Météo Météo aéro

La météo à : Autours de vous Tarbes-Lourdes-PyrénéesBasle-Mulhouse Deauville-St-Gatien Toulouse-Lasbordes

manche à air

La météo aéronautique pour les pilotes, la préparation du vol avec les METAR (METeorological Aerodrome Report, message d'observation des conditions météorologiques pour l'aviation) et Les TAF (Terminal Aerodrome Forecast : message de prévision à court terme des conditions météorologiques pour l'aviation). Et les autres ressources comme les VAC (Visual Approch Chart) et les NOTAM (Notice To Airman) pour préprer les vols.

Aéroport Luxembourg (Luxembourg) / OACI ELLX/ IATA LUX

L'altitude de l'aéroport Luxembourg est de 376 m = 1234 ft. Il est situé à proximité de Luxembourg (Luxembourg). La météo générale à 5 jours est disponible pour Kopstal situé à 10.5 km.

METAR de l'aéroport Luxembourg - ELLX

ELLX 100820Z 26006KT CAVOK 01/01 Q1027 TEMPO 4000 BR

Décodage du METAR de l'aéroport Luxembourg (LU)

METAR émis par ELLX le mardi 10 décembre 2019 à 08:20 heure TU. Attention ce METAR est obsolète car il a été émis il y a 21 heure et 5 minutes.

La visibilité est de supérieure à 10 km = supérieure à 6.2 sm.

La température est de 1°C = 34 °F et le point rosée est de 1°C = 34 °F . Ce qui correspond à 100% d'humidité relative.

Le QNH est de 1027 hPa = 30.33 inHg

Vent de 6 kt = 11 km/h, orienté à 260°.

Pas de nuages.

Temporairement 4000 brume

TAF de l'aéroport Luxembourg - ELLX

ELLX 100500Z 1006/1112 27007KT 9999 FEW014

ELLX 100500Z 1006/1112 27007KT 9999 quelques nuages à 014

Aéroport à proximité de Luxembourg

Météo générale à 5 jours à Kopstal (10.5 km)Aéroport Villerupt (33 km)Aéroport Bitburg (44 km)Aéroport Wiltz Noertrange (45 km)Aéroport Longuyon-Villette (48 km)Aéroport Saarlouis Dueren (48 km)Aéroport Trier Foehren (50 km)

VAC de l'aéroport Luxembourg - ELLX

La carte d'approche à vue (VAC Visual Approah Chart) est fournie sans aucune garantie de son actualité. Le pilote est le seul responsable de la vérification de sa validité avant de l'utiliser opérationnellement pour préparer un vol ou l'utiliser lors de sa navigation.

VAC de ELLX

Vue aérienne de l'aéroport Luxembourg

NOTAM de l'aéroport Luxembourg

Les NOTAM sont fournis sans aucune garantie de leur actualité. Le pilote est le seul responsable de la vérification de sa validité avant de l'utiliser opérationnellement pour préparer un vol ou l'utiliser lors de sa navigation.

Pas de NOTAM

Sources des données